Time;durP1;ratioP1;P1;durP2;ratioP2;P2;SDS_P1;SDS_P2;PMS_P1;PMS_P2;Temp;Humidity;BMP_temperature;BMP_pressure;BME280_temperature;BME280_humidity;BME280_pressure;Samples;Min_cycle;Max_cycle;Signal;HPM_P1;HPM_P2
2023/03/21 00:00:43;;;;;;;4.90;2.37;;;;;;;8.40;76.05;95790.13;6073143;23;20230;-82
2023/03/21 00:03:13;;;;;;;5.57;2.07;;;;;;;8.48;75.69;95794.63;6109571;23;20160;-82
2023/03/21 00:05:44;;;;;;;3.83;2.03;;;;;;;8.36;75.71;95780.16;6082876;23;20192;-80
2023/03/21 00:08:23;;;;;;;2.77;2.33;;;;;;;8.37;75.89;95777.44;6107645;23;20180;-81
2023/03/21 00:10:58;;;;;;;2.97;2.40;;;;;;;8.40;75.84;95773.78;6083635;23;20230;-81
2023/03/21 00:13:25;;;;;;;2.73;1.90;;;;;;;8.43;75.47;95776.09;6085189;23;20170;-81
2023/03/21 00:15:53;;;;;;;2.73;2.00;;;;;;;8.38;75.82;95779.06;6084871;23;20184;-82
2023/03/21 00:18:24;;;;;;;2.50;2.17;;;;;;;8.43;75.81;95773.53;6085489;23;20195;-82
2023/03/21 00:21:18;;;;;;;2.80;2.30;;;;;;;8.46;75.97;95773.25;6087253;23;20513;-82
2023/03/21 00:23:56;;;;;;;3.37;2.10;;;;;;;8.42;76.51;95771.88;6086156;23;20163;-81
2023/03/21 00:26:41;;;;;;;2.30;1.90;;;;;;;8.43;76.79;95768.34;6085787;23;20179;-81
2023/03/21 00:29:19;;;;;;;2.20;1.97;;;;;;;8.35;77.08;95766.41;6108183;23;20159;-82
2023/03/21 00:32:01;;;;;;;3.93;1.90;;;;;;;8.44;76.42;95765.63;6113317;23;20155;-82
2023/03/21 00:34:51;;;;;;;2.43;2.20;;;;;;;8.48;76.43;95759.25;6134770;23;20156;-82
2023/03/21 00:37:27;;;;;;;2.43;1.80;;;;;;;8.39;76.54;95761.75;6112101;23;20184;-81
2023/03/21 00:40:34;;;;;;;2.40;1.80;;;;;;;8.41;76.62;95759.91;6079314;23;20669;-82
2023/03/21 00:43:28;;;;;;;2.20;2.00;;;;;;;8.31;77.86;95752.06;6103684;23;20219;-82
2023/03/21 00:49:39;;;;;;;2.47;1.90;;;;;;;8.36;77.62;95754.28;6018291;23;20163;-82
2023/03/21 00:52:09;;;;;;;1.97;1.73;;;;;;;8.31;77.80;95746.88;5973588;23;20249;-82
2023/03/21 00:54:45;;;;;;;2.07;1.70;;;;;;;8.30;77.83;95746.97;6016787;23;20186;-81
2023/03/21 00:57:44;;;;;;;2.30;1.70;;;;;;;8.32;77.62;95747.69;6018887;23;20255;-81
2023/03/21 01:00:53;;;;;;;1.57;1.47;;;;;;;8.34;77.76;95740.63;6017741;23;20173;-82
2023/03/21 01:03:52;;;;;;;2.03;1.80;;;;;;;8.28;78.78;95733.38;5988959;24;20168;-82
2023/03/21 01:07:06;;;;;;;4.63;2.30;;;;;;;8.32;78.00;95732.16;5969209;24;20199;-82
2023/03/21 01:10:12;;;;;;;2.47;2.00;;;;;;;8.25;78.33;95729.28;6018752;23;20162;-82
2023/03/21 01:16:20;;;;;;;2.77;1.30;;;;;;;8.25;78.52;95731.88;6017598;23;20217;-82
2023/03/21 01:19:19;;;;;;;2.67;1.87;;;;;;;8.22;78.93;95725.19;6017573;23;20182;-81
2023/03/21 01:22:01;;;;;;;2.03;1.73;;;;;;;8.24;78.75;95731.03;6018716;23;20174;-82
2023/03/21 01:27:58;;;;;;;3.30;1.93;;;;;;;8.24;78.88;95723.28;6020641;23;20629;-81
2023/03/21 01:30:43;;;;;;;3.30;2.33;;;;;;;8.18;79.22;95718.63;6018781;23;20252;-81
2023/03/21 01:33:31;;;;;;;2.23;1.77;;;;;;;8.24;78.69;95719.88;6019602;23;20174;-81
2023/03/21 01:37:00;;;;;;;3.40;1.73;;;;;;;8.22;78.54;95724.38;6017342;23;20171;-82
2023/03/21 01:39:43;;;;;;;3.00;2.40;;;;;;;8.14;79.36;95721.59;5907448;24;20703;-82
2023/03/21 01:46:41;;;;;;;3.40;1.70;;;;;;;8.14;79.89;95727.59;5839245;24;20199;-82
2023/03/21 01:49:33;;;;;;;2.63;1.90;;;;;;;8.14;79.60;95722.41;5848035;24;20597;-82
2023/03/21 01:56:08;;;;;;;3.23;2.13;;;;;;;8.12;79.70;95719.13;5826500;24;20249;-82
2023/03/21 01:58:56;;;;;;;4.27;2.30;;;;;;;8.13;79.77;95720.78;5804636;24;20191;-80
2023/03/21 02:02:05;;;;;;;2.80;1.90;;;;;;;8.10;79.70;95723.59;5824763;24;20171;-81
2023/03/21 02:08:19;;;;;;;2.13;1.90;;;;;;;8.06;79.85;95724.00;5832738;24;20265;-80
2023/03/21 02:11:08;;;;;;;3.13;1.90;;;;;;;8.07;79.64;95710.94;5816826;24;20238;-82
2023/03/21 02:13:59;;;;;;;2.37;1.90;;;;;;;8.06;79.13;95709.31;5889030;24;20160;-79
2023/03/21 02:16:39;;;;;;;2.97;2.13;;;;;;;8.01;79.75;95701.09;5924739;24;20153;-81
2023/03/21 02:19:33;;;;;;;2.83;2.00;;;;;;;7.96;79.92;95695.50;5948088;24;20177;-81
2023/03/21 02:22:55;;;;;;;;;;;;;;;;;;;;;
2023/03/21 02:26:29;;;;;;;3.50;2.37;;;;;;;7.91;79.98;95695.88;6022652;23;20214;-81
2023/03/21 02:29:35;;;;;;;2.33;2.13;;;;;;;7.94;79.87;95689.63;5925607;24;20164;-82
2023/03/21 02:32:40;;;;;;;4.93;2.10;;;;;;;7.93;80.24;95690.56;5946136;24;20171;-82
2023/03/21 02:35:48;;;;;;;4.33;2.37;;;;;;;7.95;79.70;95686.09;5982449;24;20163;-80
2023/03/21 02:38:25;;;;;;;2.73;2.03;;;;;;;7.95;79.41;95679.19;5959770;24;20256;-82
2023/03/21 02:41:29;;;;;;;2.93;2.40;;;;;;;7.93;79.68;95685.41;5987250;23;20163;-82
2023/03/21 02:47:52;;;;;;;3.73;2.17;;;;;;;7.92;79.89;95683.75;5956052;24;20196;-81
2023/03/21 02:54:03;;;;;;;3.57;2.80;;;;;;;7.86;80.45;95687.69;5900003;24;20167;-82
2023/03/21 02:57:12;;;;;;;;;;;;;;;;;;;;;
2023/03/21 03:00:09;;;;;;;4.50;2.30;;;;;;;7.81;80.14;95678.69;5866174;24;20196;-82
2023/03/21 03:03:00;;;;;;;3.83;2.43;;;;;;;7.71;80.69;95676.03;5852205;24;20812;-82
2023/03/21 03:05:39;;;;;;;3.27;2.80;;;;;;;7.74;80.31;95678.34;5853582;24;20197;-81
2023/03/21 03:08:19;;;;;;;2.87;2.43;;;;;;;7.77;80.40;95677.28;5852083;24;20239;-82
2023/03/21 03:11:32;;;;;;;4.93;2.57;;;;;;;7.77;80.24;95677.28;5875236;24;20188;-82
2023/03/21 03:14:46;;;;;;;3.40;2.60;;;;;;;7.75;80.13;95671.41;5875067;24;20193;-81
2023/03/21 03:18:11;;;;;;;2.77;2.47;;;;;;;7.78;79.44;95669.41;5875720;24;20181;-81
2023/03/21 03:21:16;;;;;;;3.90;2.90;;;;;;;7.84;79.29;95665.47;5888179;24;20189;-82
2023/03/21 03:27:14;;;;;;;3.30;2.30;;;;;;;7.70;79.69;95656.31;5884948;24;20181;-82
2023/03/21 03:30:01;;;;;;;3.27;2.53;;;;;;;7.70;79.83;95655.50;5883099;24;20254;-80
2023/03/21 03:32:50;;;;;;;4.37;2.47;;;;;;;7.67;80.52;95659.94;5936390;24;20508;-80
2023/03/21 03:38:38;;;;;;;2.77;2.07;;;;;;;7.64;79.79;95654.22;6100197;23;20180;-80
2023/03/21 03:41:39;;;;;;;2.87;2.30;;;;;;;7.59;80.10;95654.59;6099784;23;20597;-82
2023/03/21 03:44:46;;;;;;;2.30;2.10;;;;;;;7.51;80.34;95656.16;6099624;23;20215;-82
2023/03/21 03:47:54;;;;;;;2.33;2.13;;;;;;;7.47;80.57;95655.59;6049664;23;20181;-82
2023/03/21 03:51:13;;;;;;;2.57;2.37;;;;;;;7.40;80.89;95659.63;6073283;23;20261;-82
2023/03/21 03:54:28;;;;;;;2.57;2.37;;;;;;;7.30;81.16;95664.72;5983508;24;20666;-81
2023/03/21 03:57:47;;;;;;;2.87;2.00;;;;;;;7.25;81.21;95661.72;5904629;24;20678;-81
2023/03/21 04:01:07;;;;;;;2.60;2.33;;;;;;;7.10;81.69;95656.03;5930414;24;20247;-81
2023/03/21 04:11:01;;;;;;;2.63;2.17;;;;;;;6.87;82.88;95657.03;5927619;24;20221;-81
2023/03/21 04:13:53;;;;;;;2.73;2.30;;;;;;;6.73;83.76;95660.72;5929156;24;20205;-81
2023/03/21 04:16:53;;;;;;;2.93;2.03;;;;;;;6.75;83.55;95647.69;5905805;24;20164;-81
2023/03/21 04:19:41;;;;;;;;;;;;;;;;;;;;;
2023/03/21 04:22:34;;;;;;;2.90;1.93;;;;;;;6.65;83.91;95646.78;5956421;24;20228;-80
2023/03/21 04:25:16;;;;;;;3.23;2.70;;;;;;;6.63;83.54;95646.09;5956255;24;20184;-81
2023/03/21 04:28:01;;;;;;;4.23;2.27;;;;;;;6.70;82.99;95649.81;5952553;24;20187;-82
2023/03/21 04:31:06;;;;;;;2.50;2.03;;;;;;;6.61;83.72;95651.34;6014930;23;20694;-81
2023/03/21 04:33:43;;;;;;;2.30;1.70;;;;;;;6.50;84.36;95647.03;6106491;23;20183;-82
2023/03/21 04:36:37;;;;;;;2.30;2.10;;;;;;;6.28;85.83;95654.81;6080000;23;20160;-81
2023/03/21 04:39:23;;;;;;;3.33;2.40;;;;;;;6.27;85.79;95660.91;6084269;23;20500;-82
2023/03/21 04:42:19;;;;;;;5.23;2.13;;;;;;;6.46;84.85;95645.66;6104880;23;20664;-81
2023/03/21 04:45:16;;;;;;;2.13;1.90;;;;;;;6.49;84.06;95644.59;6108819;23;20238;-81
2023/03/21 04:48:12;;;;;;;3.17;2.03;;;;;;;6.33;84.52;95652.69;6089342;23;20184;-80
2023/03/21 04:50:48;;;;;;;3.50;2.10;;;;;;;6.39;84.22;95644.47;6128353;23;20183;-81
2023/03/21 04:53:18;;;;;;;3.20;2.40;;;;;;;6.28;84.51;95644.50;6080077;23;20171;-82
2023/03/21 04:56:10;;;;;;;6.70;2.97;;;;;;;6.27;84.35;95639.44;6102048;23;20160;-82
2023/03/21 04:58:46;;;;;;;4.50;2.47;;;;;;;6.33;84.12;95639.78;6103961;23;20180;-81
2023/03/21 05:01:22;;;;;;;3.63;3.00;;;;;;;6.23;83.92;95642.28;6104117;23;20163;-81
2023/03/21 05:03:53;;;;;;;4.43;3.63;;;;;;;6.18;83.72;95639.25;6081381;23;20179;-81
2023/03/21 05:06:43;;;;;;;4.27;3.17;;;;;;;6.20;83.85;95644.28;6103028;23;20662;-81
2023/03/21 05:09:51;;;;;;;4.30;2.70;;;;;;;6.24;83.52;95645.66;6100828;23;20242;-81
2023/03/21 05:12:22;;;;;;;3.10;2.10;;;;;;;6.16;83.92;95648.00;6102861;23;20164;-80
2023/03/21 05:14:58;;;;;;;2.07;1.90;;;;;;;6.16;84.07;95648.00;6054894;23;20167;-81
2023/03/21 05:17:43;;;;;;;4.30;2.90;;;;;;;6.20;83.76;95641.69;6071998;23;20203;-80
2023/03/21 05:20:20;;;;;;;3.57;2.93;;;;;;;6.16;83.65;95645.44;6105941;23;20145;-81
2023/03/21 05:23:27;;;;;;;3.23;2.60;;;;;;;6.23;83.13;95638.88;6082423;23;20234;-81
2023/03/21 05:26:24;;;;;;;3.30;2.20;;;;;;;6.33;82.47;95637.22;6084012;23;20188;-81
2023/03/21 05:29:28;;;;;;;3.47;2.60;;;;;;;6.21;82.52;95635.59;6126383;23;20219;-82
2023/03/21 05:32:07;;;;;;;4.07;2.27;;;;;;;6.20;82.77;95641.69;6107755;23;20167;-81
2023/03/21 05:35:00;;;;;;;3.70;2.07;;;;;;;6.22;82.58;95640.63;6127560;23;20215;-82
2023/03/21 05:37:35;;;;;;;3.97;3.30;;;;;;;6.25;81.72;95637.00;6087105;23;20527;-81
2023/03/21 05:40:49;;;;;;;4.60;3.50;;;;;;;6.18;82.64;95644.41;6101008;23;20159;-80
2023/03/21 05:43:49;;;;;;;2.97;2.60;;;;;;;6.26;82.08;95638.63;6101501;23;20224;-81
2023/03/21 05:46:20;;;;;;;3.60;2.83;;;;;;;6.25;81.82;95647.31;6126649;23;20188;-81
2023/03/21 05:49:18;;;;;;;3.70;2.30;;;;;;;6.30;81.51;95646.97;6101831;23;20188;-82
2023/03/21 05:51:44;;;;;;;2.93;2.63;;;;;;;6.46;80.66;95647.41;6127092;23;20144;-79
2023/03/21 05:54:15;;;;;;;4.47;3.00;;;;;;;6.48;79.94;95641.19;6106233;23;20156;-80
2023/03/21 06:12:42;;;;;;;3.10;2.40;;;;;;;7.00;76.29;95634.47;6015284;23;20179;-79
2023/03/21 06:16:09;;;;;;;4.13;2.50;;;;;;;7.05;75.96;95637.47;5952705;24;20167;-80
2023/03/21 06:19:12;;;;;;;2.50;2.30;;;;;;;7.14;75.98;95638.50;5821335;24;20213;-82
2023/03/21 06:28:04;;;;;;;3.83;2.83;;;;;;;7.25;75.94;95645.41;5917805;23;20215;-80
2023/03/21 06:30:30;;;;;;;2.47;2.27;;;;;;;7.37;74.85;95641.81;6097156;23;20188;-80
2023/03/21 06:32:55;;;;;;;3.27;2.67;;;;;;;7.50;74.42;95639.84;6099671;23;20161;-80
2023/03/21 06:35:20;;;;;;;3.83;1.97;;;;;;;7.56;74.45;95644.50;6074139;23;20160;-80
2023/03/21 06:37:48;;;;;;;2.27;2.00;;;;;;;7.73;74.04;95639.72;6118617;23;20547;-80
2023/03/21 06:40:13;;;;;;;3.80;1.80;;;;;;;7.81;73.45;95635.53;6045911;23;20187;-80
2023/03/21 06:42:39;;;;;;;5.10;2.23;;;;;;;7.76;73.18;95640.25;6045508;23;20196;-79
2023/03/21 06:45:05;;;;;;;5.13;2.30;;;;;;;7.85;72.89;95638.69;6043980;23;20181;-77
2023/03/21 06:47:30;;;;;;;3.90;2.60;;;;;;;8.00;72.15;95639.97;6068556;23;20244;-79
2023/03/21 06:49:55;;;;;;;2.93;1.93;;;;;;;8.12;71.89;95638.94;6069873;23;20631;-79
2023/03/21 06:52:21;;;;;;;3.50;2.40;;;;;;;8.23;71.32;95633.69;6118321;23;20165;-79
2023/03/21 06:54:46;;;;;;;3.50;2.30;;;;;;;8.50;70.99;95634.88;6071536;23;20157;-79
2023/03/21 06:57:12;;;;;;;4.03;2.40;;;;;;;8.54;70.10;95638.84;6046082;23;20181;-81
2023/03/21 06:59:38;;;;;;;3.30;2.70;;;;;;;8.68;70.04;95642.81;6045726;23;20165;-83
2023/03/21 07:02:03;;;;;;;5.43;2.40;;;;;;;8.69;69.26;95645.28;6045109;23;20165;-81
2023/03/21 07:04:29;;;;;;;5.17;2.50;;;;;;;8.89;69.15;95645.28;6068277;23;20173;-82
2023/03/21 07:06:54;;;;;;;3.70;2.03;;;;;;;9.04;68.54;95638.78;6067495;23;20635;-81
2023/03/21 07:09:23;;;;;;;3.60;2.27;;;;;;;9.30;68.27;95649.41;6045132;23;20161;-82
2023/03/21 07:11:52;;;;;;;2.70;1.90;;;;;;;9.38;66.47;95654.72;6046109;23;20185;-81
2023/03/21 07:14:17;;;;;;;3.97;2.20;;;;;;;9.57;66.39;95652.13;6115995;23;20468;-81
2023/03/21 07:16:42;;;;;;;4.20;2.40;;;;;;;9.78;66.20;95649.34;6067180;23;20160;-80
2023/03/21 07:19:08;;;;;;;2.30;2.03;;;;;;;9.87;64.94;95651.09;6043960;23;20177;-81
2023/03/21 07:21:33;;;;;;;2.33;2.07;;;;;;;9.77;65.04;95645.09;6115661;23;20161;-82
2023/03/21 07:23:58;;;;;;;2.20;1.87;;;;;;;9.93;63.99;95652.31;6043351;23;20177;-80
2023/03/21 07:26:24;;;;;;;3.60;2.30;;;;;;;10.20;63.38;95646.34;6065808;23;20205;-80
2023/03/21 07:28:49;;;;;;;2.83;2.17;;;;;;;10.24;63.05;95647.72;6067066;23;20181;-80
2023/03/21 07:31:16;;;;;;;2.40;2.07;;;;;;;10.36;62.12;95638.81;6042496;23;20673;-80
2023/03/21 07:33:41;;;;;;;3.47;2.00;;;;;;;10.33;62.10;95643.44;6067242;23;20188;-83
2023/03/21 07:36:11;;;;;;;3.30;2.20;;;;;;;10.14;62.64;95646.91;6066587;23;20149;-82
2023/03/21 07:38:36;;;;;;;3.27;2.13;;;;;;;10.11;62.46;95649.78;6047137;23;20181;-82
2023/03/21 07:41:01;;;;;;;3.60;2.27;;;;;;;10.03;62.68;95647.91;6121599;23;20201;-81
2023/03/21 07:43:27;;;;;;;3.23;1.83;;;;;;;10.19;62.86;95649.91;6049048;23;20164;-81
2023/03/21 07:45:56;;;;;;;3.53;1.97;;;;;;;10.28;62.84;95645.66;6070476;23;20177;-82
2023/03/21 07:48:21;;;;;;;4.40;2.00;;;;;;;10.41;63.20;95635.75;6072820;23;20201;-82
2023/03/21 07:50:47;;;;;;;1.70;1.60;;;;;;;10.67;62.55;95639.31;6049922;23;20160;-82
2023/03/21 07:53:13;;;;;;;2.80;1.93;;;;;;;10.82;60.59;95638.81;6047318;23;20188;-82
2023/03/21 07:55:38;;;;;;;2.90;1.73;;;;;;;10.82;60.83;95642.22;6067310;23;20161;-81
2023/03/21 07:58:04;;;;;;;3.30;1.90;;;;;;;10.86;60.53;95645.34;6041987;23;20647;-80
2023/03/21 08:00:30;;;;;;;4.87;1.90;;;;;;;10.80;60.90;95645.94;6067080;23;20157;-82
2023/03/21 08:02:56;;;;;;;3.00;1.80;;;;;;;10.90;60.46;95644.91;6068045;23;20161;-82
2023/03/21 08:05:45;;;;;;;1.70;1.40;;;;;;;11.04;60.16;95644.41;6041322;23;20185;-81
2023/03/21 08:32:01;;;;;;;2.00;1.70;;;;;;;11.46;55.46;95642.97;6101323;23;20559;-79
2023/03/21 08:34:29;;;;;;;8.87;2.03;;;;;;;11.57;55.16;95638.38;6096470;23;20172;-79
2023/03/21 08:36:54;;;;;;;2.17;1.90;;;;;;;11.57;55.84;95629.72;6099628;23;20271;-77
2023/03/21 08:39:26;;;;;;;1.37;1.27;;;;;;;11.85;56.29;95631.28;6074635;23;20741;-79
2023/03/21 08:42:10;;;;;;;3.10;2.07;;;;;;;12.05;55.79;95629.25;6074212;23;20153;-79
2023/03/21 08:44:50;;;;;;;2.77;1.70;;;;;;;12.15;55.59;95629.97;6072691;23;20304;-80
2023/03/21 08:47:15;;;;;;;1.93;1.50;;;;;;;12.35;54.30;95630.53;6071081;23;20184;-81
2023/03/21 08:50:12;;;;;;;2.27;1.60;;;;;;;12.55;54.61;95625.09;6048525;23;20176;-81
2023/03/21 08:52:40;;;;;;;3.03;1.80;;;;;;;12.70;54.44;95628.72;6051414;23;20172;-80
2023/03/21 08:55:09;;;;;;;2.27;1.60;;;;;;;12.90;53.89;95624.06;6094323;23;20185;-79
2023/03/21 09:05:58;;;;;;;2.57;1.60;;;;;;;13.31;51.70;95624.94;6123831;23;20211;-80
2023/03/21 09:26:01;;;;;;;;;;;;;;;;;;;;;
2023/03/21 09:29:07;;;;;;;2.93;2.00;;;;;;;14.35;49.36;95627.56;5906125;24;20279;-85
2023/03/21 09:31:35;;;;;;;1.87;1.50;;;;;;;14.17;49.88;95626.97;5929227;24;20194;-81
2023/03/21 09:34:01;;;;;;;1.50;1.30;;;;;;;14.51;50.12;95625.91;5927989;24;20164;-82
2023/03/21 10:08:03;;;;;;;1.93;1.40;;;;;;;14.74;50.26;95614.50;6143432;23;20272;-81
2023/03/21 10:10:34;;;;;;;2.07;1.43;;;;;;;14.98;48.05;95612.75;6107041;23;20185;-82
2023/03/21 10:12:59;;;;;;;2.17;1.30;;;;;;;15.22;46.58;95617.00;6107012;23;20151;-81
2023/03/21 10:15:26;;;;;;;2.63;1.13;;;;;;;15.16;47.86;95609.84;6156494;23;20170;-81
2023/03/21 10:18:06;;;;;;;1.40;1.30;;;;;;;15.04;47.87;95611.25;6127836;23;20183;-81
2023/03/21 10:20:36;;;;;;;1.97;1.53;;;;;;;15.24;47.38;95609.78;6102434;23;20494;-81
2023/03/21 10:23:11;;;;;;;1.77;1.50;;;;;;;14.61;48.56;95610.84;6076485;23;20166;-80
2023/03/21 10:25:39;;;;;;;1.60;1.37;;;;;;;15.19;48.35;95606.88;6101528;23;20206;-80
2023/03/21 10:28:05;;;;;;;2.30;1.40;;;;;;;15.37;48.03;95604.81;6093525;23;20492;-81
2023/03/21 10:30:41;;;;;;;2.50;1.87;;;;;;;15.24;46.73;95607.19;6127881;23;20152;-81
2023/03/21 10:33:34;;;;;;;2.20;1.40;;;;;;;15.21;46.61;95610.16;6118340;23;20158;-81
2023/03/21 10:36:04;;;;;;;2.50;1.43;;;;;;;15.46;45.97;95611.59;6098296;23;20163;-82
2023/03/21 10:38:30;;;;;;;2.57;1.50;;;;;;;15.55;45.42;95601.88;6103987;23;20164;-81
2023/03/21 10:40:55;;;;;;;2.03;1.30;;;;;;;15.33;45.97;95600.91;6102340;23;20228;-83
2023/03/21 10:43:27;;;;;;;2.07;1.50;;;;;;;15.18;45.53;95598.22;6123238;23;20148;-81
2023/03/21 10:45:53;;;;;;;2.70;1.50;;;;;;;15.11;46.27;95593.88;6123286;23;20176;-81
2023/03/21 10:48:19;;;;;;;2.33;1.40;;;;;;;14.94;46.58;95604.44;6126826;23;20219;-84
2023/03/21 10:50:47;;;;;;;2.43;1.50;;;;;;;15.07;47.05;95598.63;6126171;23;20148;-81
2023/03/21 10:53:53;;;;;;;3.93;1.90;;;;;;;14.72;47.29;95605.22;6100674;23;20226;-80
2023/03/21 10:56:23;;;;;;;2.60;1.77;;;;;;;15.04;45.95;95604.22;6090273;23;20155;-80
2023/03/21 10:58:49;;;;;;;4.13;2.00;;;;;;;14.79;46.54;95595.69;6093787;23;20188;-80
2023/03/21 11:01:29;;;;;;;3.07;1.80;;;;;;;14.62;44.96;95608.03;6119175;23;20721;-80
2023/03/21 11:04:00;;;;;;;2.83;2.10;;;;;;;14.85;44.57;95600.25;6095226;23;20144;-80
2023/03/21 11:06:30;;;;;;;3.43;1.90;;;;;;;14.79;45.98;95600.94;6093305;23;20178;-80
2023/03/21 11:09:13;;;;;;;4.00;2.00;;;;;;;14.58;46.42;95592.88;6093636;23;20569;-80
2023/03/21 11:12:02;;;;;;;4.40;2.50;;;;;;;14.28;47.61;95602.28;6093965;23;20175;-80
2023/03/21 11:14:44;;;;;;;4.63;2.40;;;;;;;14.24;48.41;95595.78;6119466;23;20156;-81
2023/03/21 11:17:15;;;;;;;3.27;2.20;;;;;;;14.40;48.22;95593.91;6093998;23;20214;-81
2023/03/21 11:19:46;;;;;;;4.57;2.50;;;;;;;14.68;48.98;95593.50;6096820;23;20175;-79
2023/03/21 11:22:12;;;;;;;4.70;2.40;;;;;;;14.54;48.04;95599.44;6070431;23;20629;-81
2023/03/21 11:24:38;;;;;;;3.27;1.93;;;;;;;14.59;48.37;95597.13;6093652;23;20175;-81
2023/03/21 11:27:07;;;;;;;2.43;2.03;;;;;;;14.63;48.14;95583.53;6067448;23;20955;-78
2023/03/21 11:29:43;;;;;;;4.93;2.37;;;;;;;14.34;48.24;95591.97;6066662;23;20164;-80
2023/03/21 11:32:13;;;;;;;6.20;2.50;;;;;;;14.36;47.38;95586.56;6094618;23;20582;-80
2023/03/21 11:34:46;;;;;;;5.37;2.23;;;;;;;14.36;47.43;95591.78;6094866;23;20156;-81
2023/03/21 11:37:27;;;;;;;6.47;2.30;;;;;;;14.25;47.72;95584.34;6096250;23;20175;-80
2023/03/21 11:40:06;;;;;;;4.43;1.80;;;;;;;14.13;48.17;95586.47;6095662;23;20152;-81
2023/03/21 11:42:38;;;;;;;4.20;2.27;;;;;;;13.72;48.73;95586.59;6097194;23;20140;-81
2023/03/21 11:45:11;;;;;;;4.93;2.00;;;;;;;14.03;48.29;95575.44;6072301;23;20994;-80
2023/03/21 11:47:37;;;;;;;3.17;2.20;;;;;;;14.00;47.86;95578.38;6097255;23;20214;-79
2023/03/21 11:50:12;;;;;;;2.97;2.27;;;;;;;13.58;49.03;95572.41;6073502;23;20159;-81
2023/03/21 11:52:43;;;;;;;6.20;4.20;;;;;;;14.11;48.28;95559.72;6093860;23;20163;-80
2023/03/21 11:55:32;;;;;;;5.03;2.43;;;;;;;14.45;48.02;95565.50;6096497;23;20199;-79
2023/03/21 11:58:10;;;;;;;4.07;2.70;;;;;;;14.46;47.97;95555.84;6069888;23;20179;-80
2023/03/21 12:00:44;;;;;;;3.87;2.67;;;;;;;14.55;46.98;95554.81;6096146;23;20147;-79
2023/03/21 12:03:20;;;;;;;4.60;2.70;;;;;;;14.68;47.08;95556.91;6073413;23;20155;-79
2023/03/21 12:05:55;;;;;;;3.07;2.30;;;;;;;14.71;46.37;95546.09;6096023;23;20201;-79
2023/03/21 12:08:39;;;;;;;4.90;2.00;;;;;;;14.70;46.59;95544.47;6074357;23;20286;-80
2023/03/21 12:11:25;;;;;;;6.00;2.10;;;;;;;14.47;46.93;95547.03;6100878;23;20467;-80
2023/03/21 12:13:50;;;;;;;3.10;2.10;;;;;;;14.62;46.71;95544.50;6102563;23;20202;-79
2023/03/21 12:16:43;;;;;;;5.30;2.17;;;;;;;14.90;46.21;95542.19;6126425;23;20156;-79
2023/03/21 12:19:34;;;;;;;3.13;2.07;;;;;;;15.24;46.73;95536.53;6127490;23;20151;-80
2023/03/21 12:22:03;;;;;;;3.90;2.10;;;;;;;15.27;45.93;95530.94;6101540;23;20190;-80
2023/03/21 12:24:57;;;;;;;4.80;2.03;;;;;;;15.46;45.52;95529.63;6129038;23;20172;-79
2023/03/21 12:27:38;;;;;;;2.70;2.20;;;;;;;15.09;46.77;95526.03;6103530;23;20176;-81
2023/03/21 12:30:19;;;;;;;8.57;2.07;;;;;;;15.45;45.59;95523.59;6100861;23;20187;-80
2023/03/21 12:33:01;;;;;;;4.03;2.57;;;;;;;15.34;44.98;95518.78;6101607;23;20152;-80
2023/03/21 12:35:39;;;;;;;4.73;2.53;;;;;;;15.09;46.70;95515.56;6101378;23;20147;-81
2023/03/21 12:38:16;;;;;;;4.17;2.63;;;;;;;15.45;46.21;95520.97;6101346;23;20812;-80
2023/03/21 12:40:44;;;;;;;5.37;2.23;;;;;;;15.39;46.02;95513.84;6101486;23;20151;-80
2023/03/21 12:43:21;;;;;;;4.53;2.27;;;;;;;15.23;45.78;95506.97;6127227;23;20603;-80
2023/03/21 12:45:50;;;;;;;2.87;2.37;;;;;;;15.80;45.98;95505.59;6075821;23;20171;-81
2023/03/21 12:48:21;;;;;;;4.73;2.03;;;;;;;16.07;45.15;95509.38;6100440;23;20271;-81
2023/03/21 12:50:49;;;;;;;3.80;2.40;;;;;;;15.53;46.47;95507.00;6100336;23;20145;-80
2023/03/21 12:53:28;;;;;;;4.53;1.90;;;;;;;16.23;47.28;95509.19;6100525;23;20232;-81
2023/03/21 12:55:57;;;;;;;4.00;2.10;;;;;;;15.41;45.92;95514.47;6124412;23;20504;-80
2023/03/21 12:58:24;;;;;;;2.60;2.17;;;;;;;15.91;44.95;95510.41;6075721;23;20617;-80
2023/03/21 13:00:57;;;;;;;6.00;2.40;;;;;;;16.00;44.42;95496.22;6073486;23;20160;-81
2023/03/21 13:03:28;;;;;;;3.90;2.10;;;;;;;14.43;47.97;95496.09;6074177;23;20163;-81
2023/03/21 13:05:59;;;;;;;4.03;2.10;;;;;;;15.22;46.35;95496.69;6099720;23;20164;-81
2023/03/21 13:08:41;;;;;;;2.93;2.20;;;;;;;15.30;46.23;95499.22;6099487;23;20827;-82
2023/03/21 13:11:07;;;;;;;2.83;1.90;;;;;;;15.74;46.97;95503.72;6098587;23;20160;-80
2023/03/21 13:13:37;;;;;;;4.87;1.90;;;;;;;15.18;46.28;95498.81;6099699;23;20171;-81
2023/03/21 13:16:29;;;;;;;3.03;2.40;;;;;;;15.41;46.56;95501.41;6076108;23;20152;-81
2023/03/21 13:19:13;;;;;;;3.17;2.40;;;;;;;15.44;46.90;95498.41;6100509;23;20239;-81
2023/03/21 13:21:51;;;;;;;4.27;2.57;;;;;;;15.51;46.91;95499.34;6076700;23;20156;-81
2023/03/21 13:24:30;;;;;;;8.93;2.30;;;;;;;15.48;46.92;95496.28;6077444;23;20164;-82
2023/03/21 13:27:18;;;;;;;3.10;2.60;;;;;;;15.64;47.39;95497.94;6127729;23;20179;-82
2023/03/21 13:29:46;;;;;;;5.30;2.87;;;;;;;15.77;46.87;95505.97;6102229;23;20171;-82
2023/03/21 13:32:15;;;;;;;4.87;2.70;;;;;;;15.43;47.92;95486.31;6078673;23;20148;-82
2023/03/21 13:34:43;;;;;;;4.23;2.60;;;;;;;15.16;47.10;95479.88;6101387;23;20160;-81
2023/03/21 13:37:15;;;;;;;3.93;2.80;;;;;;;14.78;48.01;95479.06;6127832;23;20206;-82
2023/03/21 13:39:45;;;;;;;6.33;2.90;;;;;;;15.00;48.21;95469.56;6100806;23;20740;-82
2023/03/21 13:42:17;;;;;;;5.43;2.40;;;;;;;15.38;47.39;95472.19;6128579;23;20184;-82
2023/03/21 13:44:51;;;;;;;2.80;2.50;;;;;;;15.46;48.46;95474.69;6077988;23;20794;-81
2023/03/21 13:48:01;;;;;;;4.30;2.37;;;;;;;15.86;48.08;95473.47;6078438;23;20214;-82
2023/03/21 13:50:49;;;;;;;3.27;2.30;;;;;;;15.91;46.80;95465.06;6125577;23;20256;-83
2023/03/21 13:53:15;;;;;;;4.07;2.00;;;;;;;16.20;46.74;95462.41;6080622;23;20179;-82
2023/03/21 13:55:43;;;;;;;3.07;2.20;;;;;;;16.14;46.62;95463.13;6103151;23;20152;-82
2023/03/21 13:58:44;;;;;;;6.77;2.60;;;;;;;16.08;45.56;95461.25;6079336;23;20191;-81
2023/03/21 14:01:29;;;;;;;4.57;2.30;;;;;;;15.90;46.89;95461.63;6039244;23;20161;-82
2023/03/21 14:04:18;;;;;;;4.47;2.60;;;;;;;15.94;47.11;95451.59;6073617;23;20490;-82
2023/03/21 14:06:47;;;;;;;3.50;2.50;;;;;;;16.08;46.42;95464.69;6091646;23;20188;-82
2023/03/21 14:09:19;;;;;;;3.83;2.70;;;;;;;15.83;47.03;95452.91;6084040;23;20304;-82
2023/03/21 14:11:47;;;;;;;5.40;2.60;;;;;;;16.03;47.03;95450.50;6075474;23;20172;-82
2023/03/21 14:14:12;;;;;;;5.40;2.50;;;;;;;16.09;47.38;95457.66;6051368;23;20474;-83
2023/03/21 14:16:38;;;;;;;6.10;2.80;;;;;;;16.06;46.41;95461.41;6073612;23;20176;-82
2023/03/21 14:19:04;;;;;;;3.22;2.20;;;;;;;16.30;47.81;95456.88;6073728;23;20160;-82
2023/03/21 14:21:32;;;;;;;4.82;2.33;;;;;;;16.35;47.77;95455.31;6051279;23;20161;-82
2023/03/21 14:24:03;;;;;;;6.10;2.95;;;;;;;16.03;45.71;95456.56;6074755;23;20240;-82
2023/03/21 14:26:35;;;;;;;3.05;2.35;;;;;;;15.83;47.06;95458.13;6073506;23;20181;-82
2023/03/21 14:29:04;;;;;;;6.20;2.28;;;;;;;15.54;46.94;95446.63;6074565;23;20153;-83
2023/03/21 14:31:30;;;;;;;4.37;2.50;;;;;;;15.74;47.83;95452.19;6073624;23;20160;-82
2023/03/21 14:33:57;;;;;;;4.50;2.40;;;;;;;15.74;46.80;95456.59;6050523;23;20650;-82
2023/03/21 14:36:28;;;;;;;6.70;2.55;;;;;;;15.67;47.55;95451.28;6049743;23;20153;-82
2023/03/21 14:39:03;;;;;;;6.00;2.47;;;;;;;15.48;47.78;95434.28;6074296;23;20153;-82
2023/03/21 14:41:30;;;;;;;2.77;2.30;;;;;;;15.94;47.33;95441.13;6073639;23;20144;-82
2023/03/21 14:44:38;;;;;;;2.22;2.00;;;;;;;15.93;48.16;95440.31;6074651;23;20697;-82
2023/03/21 14:47:15;;;;;;;2.87;2.07;;;;;;;15.97;47.65;95441.56;6015134;23;20192;-83
2023/03/21 14:49:40;;;;;;;4.97;2.60;;;;;;;15.89;46.77;95435.63;6015171;23;20213;-82
2023/03/21 14:52:10;;;;;;;2.35;1.90;;;;;;;15.94;47.65;95435.91;5991744;23;20166;-82
2023/03/21 14:54:39;;;;;;;6.07;2.97;;;;;;;15.75;47.28;95435.47;6014522;23;20536;-83
2023/03/21 14:57:09;;;;;;;4.38;2.53;;;;;;;15.73;48.25;95427.00;6014685;23;20185;-83
2023/03/21 14:59:36;;;;;;;3.20;2.40;;;;;;;15.97;47.76;95436.34;6016003;23;20168;-82
2023/03/21 15:02:05;;;;;;;2.97;1.90;;;;;;;15.68;47.84;95431.13;5991844;23;20605;-82
2023/03/21 15:04:31;;;;;;;2.83;2.10;;;;;;;15.66;47.27;95428.72;6015627;23;20162;-82
2023/03/21 15:07:00;;;;;;;4.20;1.90;;;;;;;15.51;48.45;95423.44;6016145;23;20189;-83